sensor_id;sensor_type;location;lat;lon;timestamp;temperature;humidity
4107;DHT22;21906;50.812;7.132;2023-07-20T00:00:52;20.30;62.60
4107;DHT22;21906;50.812;7.132;2023-07-20T00:03:19;20.30;63.00
4107;DHT22;21906;50.812;7.132;2023-07-20T00:05:49;20.30;62.80
4107;DHT22;21906;50.812;7.132;2023-07-20T00:08:18;20.20;62.70
4107;DHT22;21906;50.812;7.132;2023-07-20T00:10:44;20.10;63.10
4107;DHT22;21906;50.812;7.132;2023-07-20T00:13:11;20.20;62.90
4107;DHT22;21906;50.812;7.132;2023-07-20T00:15:37;20.20;62.80
4107;DHT22;21906;50.812;7.132;2023-07-20T00:18:04;20.20;62.80
4107;DHT22;21906;50.812;7.132;2023-07-20T00:20:30;20.20;62.90
4107;DHT22;21906;50.812;7.132;2023-07-20T00:22:57;20.10;63.10
4107;DHT22;21906;50.812;7.132;2023-07-20T00:25:24;20.10;63.30
4107;DHT22;21906;50.812;7.132;2023-07-20T00:27:49;20.20;63.50
4107;DHT22;21906;50.812;7.132;2023-07-20T00:30:15;20.20;63.50
4107;DHT22;21906;50.812;7.132;2023-07-20T00:32:42;20.30;63.40
4107;DHT22;21906;50.812;7.132;2023-07-20T00:35:08;20.20;63.50
4107;DHT22;21906;50.812;7.132;2023-07-20T00:37:34;20.30;63.60
4107;DHT22;21906;50.812;7.132;2023-07-20T00:39:59;20.30;63.40
4107;DHT22;21906;50.812;7.132;2023-07-20T00:42:25;20.20;63.40
4107;DHT22;21906;50.812;7.132;2023-07-20T00:44:51;20.20;63.30
4107;DHT22;21906;50.812;7.132;2023-07-20T00:47:16;20.10;63.40
4107;DHT22;21906;50.812;7.132;2023-07-20T00:49:42;20.20;63.50
4107;DHT22;21906;50.812;7.132;2023-07-20T00:52:11;20.10;63.60
4107;DHT22;21906;50.812;7.132;2023-07-20T00:54:40;20.00;64.10
4107;DHT22;21906;50.812;7.132;2023-07-20T00:57:07;20.00;64.30
4107;DHT22;21906;50.812;7.132;2023-07-20T00:59:36;20.00;64.70
4107;DHT22;21906;50.812;7.132;2023-07-20T01:02:02;19.90;65.10
4107;DHT22;21906;50.812;7.132;2023-07-20T01:04:28;19.90;65.20
4107;DHT22;21906;50.812;7.132;2023-07-20T01:07:10;19.90;65.30
4107;DHT22;21906;50.812;7.132;2023-07-20T01:09:44;19.90;65.50
4107;DHT22;21906;50.812;7.132;2023-07-20T01:12:22;19.90;65.50
4107;DHT22;21906;50.812;7.132;2023-07-20T01:14:50;19.80;66.60
4107;DHT22;21906;50.812;7.132;2023-07-20T01:17:16;19.80;66.60
4107;DHT22;21906;50.812;7.132;2023-07-20T01:19:42;19.70;67.20
4107;DHT22;21906;50.812;7.132;2023-07-20T01:32:31;19.70;67.70
4107;DHT22;21906;50.812;7.132;2023-07-20T01:34:57;19.60;68.10
4107;DHT22;21906;50.812;7.132;2023-07-20T01:37:24;19.70;68.40
4107;DHT22;21906;50.812;7.132;2023-07-20T01:39:54;19.60;69.10
4107;DHT22;21906;50.812;7.132;2023-07-20T01:42:23;19.50;69.50
4107;DHT22;21906;50.812;7.132;2023-07-20T01:44:53;19.50;69.90
4107;DHT22;21906;50.812;7.132;2023-07-20T01:47:19;19.60;69.80
4107;DHT22;21906;50.812;7.132;2023-07-20T01:49:44;19.60;69.80
4107;DHT22;21906;50.812;7.132;2023-07-20T01:52:10;19.50;70.00
4107;DHT22;21906;50.812;7.132;2023-07-20T01:54:36;19.60;70.20
4107;DHT22;21906;50.812;7.132;2023-07-20T01:57:01;19.60;70.10
4107;DHT22;21906;50.812;7.132;2023-07-20T01:59:27;19.50;70.50
4107;DHT22;21906;50.812;7.132;2023-07-20T02:01:53;19.40;70.70
4107;DHT22;21906;50.812;7.132;2023-07-20T02:04:18;19.40;70.90
4107;DHT22;21906;50.812;7.132;2023-07-20T02:06:44;19.40;70.80
4107;DHT22;21906;50.812;7.132;2023-07-20T02:09:09;19.30;70.90
4107;DHT22;21906;50.812;7.132;2023-07-20T02:11:35;19.30;71.20
4107;DHT22;21906;50.812;7.132;2023-07-20T02:14:01;19.30;71.10
4107;DHT22;21906;50.812;7.132;2023-07-20T02:16:26;19.30;71.10
4107;DHT22;21906;50.812;7.132;2023-07-20T02:18:52;19.30;71.00
4107;DHT22;21906;50.812;7.132;2023-07-20T02:21:18;19.40;71.00
4107;DHT22;21906;50.812;7.132;2023-07-20T02:23:44;19.40;70.90
4107;DHT22;21906;50.812;7.132;2023-07-20T02:26:09;19.30;70.90
4107;DHT22;21906;50.812;7.132;2023-07-20T02:28:35;19.40;70.80
4107;DHT22;21906;50.812;7.132;2023-07-20T02:31:01;19.40;70.80
4107;DHT22;21906;50.812;7.132;2023-07-20T02:33:26;19.40;70.80
4107;DHT22;21906;50.812;7.132;2023-07-20T02:35:52;19.40;70.80
4107;DHT22;21906;50.812;7.132;2023-07-20T02:38:18;19.30;70.90
4107;DHT22;21906;50.812;7.132;2023-07-20T02:40:43;19.30;70.90
4107;DHT22;21906;50.812;7.132;2023-07-20T02:43:09;19.20;70.80
4107;DHT22;21906;50.812;7.132;2023-07-20T02:45:35;19.10;71.10
4107;DHT22;21906;50.812;7.132;2023-07-20T02:48:01;19.20;70.90
4107;DHT22;21906;50.812;7.132;2023-07-20T02:50:26;19.20;70.80
4107;DHT22;21906;50.812;7.132;2023-07-20T02:52:52;19.20;70.70
4107;DHT22;21906;50.812;7.132;2023-07-20T02:55:17;19.20;70.60
4107;DHT22;21906;50.812;7.132;2023-07-20T02:57:43;19.20;70.40
4107;DHT22;21906;50.812;7.132;2023-07-20T03:00:09;19.20;70.50
4107;DHT22;21906;50.812;7.132;2023-07-20T03:02:35;19.20;70.50
4107;DHT22;21906;50.812;7.132;2023-07-20T03:05:01;19.10;70.60
4107;DHT22;21906;50.812;7.132;2023-07-20T03:07:29;19.10;70.50
4107;DHT22;21906;50.812;7.132;2023-07-20T03:09:54;19.10;70.50
4107;DHT22;21906;50.812;7.132;2023-07-20T03:12:20;19.10;70.40
4107;DHT22;21906;50.812;7.132;2023-07-20T03:14:47;19.00;70.60
4107;DHT22;21906;50.812;7.132;2023-07-20T03:17:12;18.90;70.50
4107;DHT22;21906;50.812;7.132;2023-07-20T03:19:38;18.90;70.60
4107;DHT22;21906;50.812;7.132;2023-07-20T03:22:04;18.80;70.90
4107;DHT22;21906;50.812;7.132;2023-07-20T03:24:29;18.80;70.80
4107;DHT22;21906;50.812;7.132;2023-07-20T03:26:55;18.90;71.00
4107;DHT22;21906;50.812;7.132;2023-07-20T03:29:20;18.90;70.90
4107;DHT22;21906;50.812;7.132;2023-07-20T03:31:46;18.90;70.80
4107;DHT22;21906;50.812;7.132;2023-07-20T03:34:12;18.90;70.90
4107;DHT22;21906;50.812;7.132;2023-07-20T03:36:37;18.90;71.10
4107;DHT22;21906;50.812;7.132;2023-07-20T03:39:03;18.90;71.00
4107;DHT22;21906;50.812;7.132;2023-07-20T03:41:28;18.80;71.00
4107;DHT22;21906;50.812;7.132;2023-07-20T03:43:54;18.80;70.80
4107;DHT22;21906;50.812;7.132;2023-07-20T03:46:20;18.90;70.90
4107;DHT22;21906;50.812;7.132;2023-07-20T03:48:45;18.80;70.80
4107;DHT22;21906;50.812;7.132;2023-07-20T03:51:11;18.90;70.70
4107;DHT22;21906;50.812;7.132;2023-07-20T03:53:37;18.90;70.70
4107;DHT22;21906;50.812;7.132;2023-07-20T03:56:03;18.70;70.90
4107;DHT22;21906;50.812;7.132;2023-07-20T03:58:28;18.80;70.60
4107;DHT22;21906;50.812;7.132;2023-07-20T04:00:55;18.90;70.40
4107;DHT22;21906;50.812;7.132;2023-07-20T04:03:22;18.80;70.30
4107;DHT22;21906;50.812;7.132;2023-07-20T04:05:50;18.80;70.30
4107;DHT22;21906;50.812;7.132;2023-07-20T04:08:15;18.80;70.10
4107;DHT22;21906;50.812;7.132;2023-07-20T04:10:44;18.80;69.80
4107;DHT22;21906;50.812;7.132;2023-07-20T04:13:10;18.90;69.70
4107;DHT22;21906;50.812;7.132;2023-07-20T04:15:36;18.80;70.10
4107;DHT22;21906;50.812;7.132;2023-07-20T04:18:01;18.80;70.10
4107;DHT22;21906;50.812;7.132;2023-07-20T04:20:27;18.70;70.00
4107;DHT22;21906;50.812;7.132;2023-07-20T04:22:53;18.70;70.10
4107;DHT22;21906;50.812;7.132;2023-07-20T04:25:19;18.70;69.90
4107;DHT22;21906;50.812;7.132;2023-07-20T04:27:45;18.70;70.00
4107;DHT22;21906;50.812;7.132;2023-07-20T04:30:11;18.80;69.80
4107;DHT22;21906;50.812;7.132;2023-07-20T04:32:38;18.80;69.80
4107;DHT22;21906;50.812;7.132;2023-07-20T04:35:07;18.70;69.90
4107;DHT22;21906;50.812;7.132;2023-07-20T04:37:33;18.80;69.30
4107;DHT22;21906;50.812;7.132;2023-07-20T04:39:59;18.80;69.20
4107;DHT22;21906;50.812;7.132;2023-07-20T04:42:24;18.90;69.10
4107;DHT22;21906;50.812;7.132;2023-07-20T04:44:50;18.80;69.20
4107;DHT22;21906;50.812;7.132;2023-07-20T04:47:15;18.80;69.20
4107;DHT22;21906;50.812;7.132;2023-07-20T04:49:41;18.80;69.10
4107;DHT22;21906;50.812;7.132;2023-07-20T04:52:07;18.80;69.10
4107;DHT22;21906;50.812;7.132;2023-07-20T04:54:33;18.80;68.80
4107;DHT22;21906;50.812;7.132;2023-07-20T04:56:59;18.80;69.30
4107;DHT22;21906;50.812;7.132;2023-07-20T04:59:24;18.70;69.50
4107;DHT22;21906;50.812;7.132;2023-07-20T05:01:50;18.70;69.60
4107;DHT22;21906;50.812;7.132;2023-07-20T05:04:16;18.60;69.90
4107;DHT22;21906;50.812;7.132;2023-07-20T05:06:41;18.60;70.20
4107;DHT22;21906;50.812;7.132;2023-07-20T05:09:07;18.60;70.50
4107;DHT22;21906;50.812;7.132;2023-07-20T05:11:33;18.60;70.30
4107;DHT22;21906;50.812;7.132;2023-07-20T05:14:00;18.60;70.40
4107;DHT22;21906;50.812;7.132;2023-07-20T05:16:25;18.70;70.40
4107;DHT22;21906;50.812;7.132;2023-07-20T05:18:51;18.60;70.50
4107;DHT22;21906;50.812;7.132;2023-07-20T05:21:17;18.60;70.50
4107;DHT22;21906;50.812;7.132;2023-07-20T05:23:42;18.80;70.20
4107;DHT22;21906;50.812;7.132;2023-07-20T05:26:08;18.90;69.80
4107;DHT22;21906;50.812;7.132;2023-07-20T05:28:34;18.80;69.70
4107;DHT22;21906;50.812;7.132;2023-07-20T05:31:02;18.90;69.80
4107;DHT22;21906;50.812;7.132;2023-07-20T05:33:28;18.90;69.40
4107;DHT22;21906;50.812;7.132;2023-07-20T05:35:54;18.90;69.60
4107;DHT22;21906;50.812;7.132;2023-07-20T05:38:19;18.90;69.30
4107;DHT22;21906;50.812;7.132;2023-07-20T05:40:45;18.90;69.50
4107;DHT22;21906;50.812;7.132;2023-07-20T05:43:12;18.90;69.30
4107;DHT22;21906;50.812;7.132;2023-07-20T05:45:41;18.90;69.60
4107;DHT22;21906;50.812;7.132;2023-07-20T05:48:08;18.90;69.70
4107;DHT22;21906;50.812;7.132;2023-07-20T05:50:37;19.00;69.70
4107;DHT22;21906;50.812;7.132;2023-07-20T05:53:02;19.00;69.60
4107;DHT22;21906;50.812;7.132;2023-07-20T05:55:28;19.10;69.50
4107;DHT22;21906;50.812;7.132;2023-07-20T05:57:54;19.20;68.80
4107;DHT22;21906;50.812;7.132;2023-07-20T06:00:21;19.20;68.70
4107;DHT22;21906;50.812;7.132;2023-07-20T06:02:52;19.20;68.80
4107;DHT22;21906;50.812;7.132;2023-07-20T06:05:19;19.10;69.20
4107;DHT22;21906;50.812;7.132;2023-07-20T06:07:45;19.20;69.30
4107;DHT22;21906;50.812;7.132;2023-07-20T06:10:11;19.10;69.70
4107;DHT22;21906;50.812;7.132;2023-07-20T06:12:36;19.20;69.20
4107;DHT22;21906;50.812;7.132;2023-07-20T06:15:05;19.30;69.20
4107;DHT22;21906;50.812;7.132;2023-07-20T06:17:32;19.40;69.30
4107;DHT22;21906;50.812;7.132;2023-07-20T06:19:58;19.40;69.60
4107;DHT22;21906;50.812;7.132;2023-07-20T06:22:24;19.40;68.80
4107;DHT22;21906;50.812;7.132;2023-07-20T06:24:49;19.40;68.80
4107;DHT22;21906;50.812;7.132;2023-07-20T06:27:15;19.50;68.40
4107;DHT22;21906;50.812;7.132;2023-07-20T06:29:41;19.50;68.40
4107;DHT22;21906;50.812;7.132;2023-07-20T06:32:07;19.60;67.70
4107;DHT22;21906;50.812;7.132;2023-07-20T06:34:33;19.70;67.40
4107;DHT22;21906;50.812;7.132;2023-07-20T06:37:03;19.70;67.40
4107;DHT22;21906;50.812;7.132;2023-07-20T06:39:29;19.70;67.50
4107;DHT22;21906;50.812;7.132;2023-07-20T06:41:55;19.70;67.60
4107;DHT22;21906;50.812;7.132;2023-07-20T06:44:21;19.70;67.70
4107;DHT22;21906;50.812;7.132;2023-07-20T06:46:46;19.70;67.60
4107;DHT22;21906;50.812;7.132;2023-07-20T06:49:27;19.70;67.90
4107;DHT22;21906;50.812;7.132;2023-07-20T06:51:52;19.70;67.80
4107;DHT22;21906;50.812;7.132;2023-07-20T06:54:18;19.70;67.10
4107;DHT22;21906;50.812;7.132;2023-07-20T06:56:44;19.70;67.00
4107;DHT22;21906;50.812;7.132;2023-07-20T06:59:10;19.70;67.10
4107;DHT22;21906;50.812;7.132;2023-07-20T07:01:35;19.70;67.50
4107;DHT22;21906;50.812;7.132;2023-07-20T07:04:01;19.80;67.40
4107;DHT22;21906;50.812;7.132;2023-07-20T07:06:27;19.90;67.50
4107;DHT22;21906;50.812;7.132;2023-07-20T07:08:53;19.90;67.20
4107;DHT22;21906;50.812;7.132;2023-07-20T07:11:20;20.00;66.20
4107;DHT22;21906;50.812;7.132;2023-07-20T07:13:46;20.10;65.80
4107;DHT22;21906;50.812;7.132;2023-07-20T07:16:12;20.10;64.60
4107;DHT22;21906;50.812;7.132;2023-07-20T07:18:40;20.00;65.10
4107;DHT22;21906;50.812;7.132;2023-07-20T07:21:05;20.00;65.20
4107;DHT22;21906;50.812;7.132;2023-07-20T07:23:31;19.80;65.40
4107;DHT22;21906;50.812;7.132;2023-07-20T07:25:57;19.90;65.90
4107;DHT22;21906;50.812;7.132;2023-07-20T07:28:22;20.00;65.20
4107;DHT22;21906;50.812;7.132;2023-07-20T07:30:48;20.10;65.90
4107;DHT22;21906;50.812;7.132;2023-07-20T07:33:14;20.20;65.30
4107;DHT22;21906;50.812;7.132;2023-07-20T07:35:39;20.40;65.10
4107;DHT22;21906;50.812;7.132;2023-07-20T07:38:05;20.40;64.50
4107;DHT22;21906;50.812;7.132;2023-07-20T07:40:32;20.40;64.40
4107;DHT22;21906;50.812;7.132;2023-07-20T07:42:57;20.40;64.50
4107;DHT22;21906;50.812;7.132;2023-07-20T07:45:23;20.30;64.80
4107;DHT22;21906;50.812;7.132;2023-07-20T07:47:49;20.40;64.80
4107;DHT22;21906;50.812;7.132;2023-07-20T07:50:14;20.40;65.10
4107;DHT22;21906;50.812;7.132;2023-07-20T07:52:40;20.60;63.40
4107;DHT22;21906;50.812;7.132;2023-07-20T07:55:06;20.80;62.10
4107;DHT22;21906;50.812;7.132;2023-07-20T07:57:32;20.80;62.30
4107;DHT22;21906;50.812;7.132;2023-07-20T07:59:57;20.80;61.40
4107;DHT22;21906;50.812;7.132;2023-07-20T08:02:23;20.70;62.20
4107;DHT22;21906;50.812;7.132;2023-07-20T08:04:49;20.80;62.00
4107;DHT22;21906;50.812;7.132;2023-07-20T08:07:17;20.70;62.00
4107;DHT22;21906;50.812;7.132;2023-07-20T08:09:43;20.80;61.50
4107;DHT22;21906;50.812;7.132;2023-07-20T08:12:09;20.90;61.40
4107;DHT22;21906;50.812;7.132;2023-07-20T08:14:34;21.00;60.10
4107;DHT22;21906;50.812;7.132;2023-07-20T08:17:00;21.00;60.40
4107;DHT22;21906;50.812;7.132;2023-07-20T08:19:26;21.00;60.20
4107;DHT22;21906;50.812;7.132;2023-07-20T08:21:51;21.00;60.10
4107;DHT22;21906;50.812;7.132;2023-07-20T08:24:17;21.30;58.50
4107;DHT22;21906;50.812;7.132;2023-07-20T08:26:43;21.10;58.70
4107;DHT22;21906;50.812;7.132;2023-07-20T08:29:08;20.90;59.60
4107;DHT22;21906;50.812;7.132;2023-07-20T08:31:34;21.10;58.80
4107;DHT22;21906;50.812;7.132;2023-07-20T08:34:00;21.30;59.50
4107;DHT22;21906;50.812;7.132;2023-07-20T08:36:25;21.40;58.10
4107;DHT22;21906;50.812;7.132;2023-07-20T08:38:52;21.50;57.60
4107;DHT22;21906;50.812;7.132;2023-07-20T08:41:18;21.60;58.20
4107;DHT22;21906;50.812;7.132;2023-07-20T08:43:46;21.70;58.50
4107;DHT22;21906;50.812;7.132;2023-07-20T08:46:13;21.80;58.30
4107;DHT22;21906;50.812;7.132;2023-07-20T08:48:41;21.70;57.10
4107;DHT22;21906;50.812;7.132;2023-07-20T08:51:07;21.60;57.60
4107;DHT22;21906;50.812;7.132;2023-07-20T08:53:34;21.60;57.10
4107;DHT22;21906;50.812;7.132;2023-07-20T08:55:59;21.70;57.10
4107;DHT22;21906;50.812;7.132;2023-07-20T08:58:26;21.60;56.70
4107;DHT22;21906;50.812;7.132;2023-07-20T09:00:54;21.80;57.70
4107;DHT22;21906;50.812;7.132;2023-07-20T09:03:21;21.90;55.20
4107;DHT22;21906;50.812;7.132;2023-07-20T09:05:47;21.80;54.90
4107;DHT22;21906;50.812;7.132;2023-07-20T09:08:12;21.90;53.60
4107;DHT22;21906;50.812;7.132;2023-07-20T09:10:39;21.80;53.80
4107;DHT22;21906;50.812;7.132;2023-07-20T09:13:04;21.80;54.60
4107;DHT22;21906;50.812;7.132;2023-07-20T09:15:30;21.80;55.80
4107;DHT22;21906;50.812;7.132;2023-07-20T09:17:56;21.90;54.80
4107;DHT22;21906;50.812;7.132;2023-07-20T09:20:22;22.00;55.30
4107;DHT22;21906;50.812;7.132;2023-07-20T09:22:47;22.20;55.30
4107;DHT22;21906;50.812;7.132;2023-07-20T09:25:18;22.20;54.20
4107;DHT22;21906;50.812;7.132;2023-07-20T09:27:48;22.30;54.30
4107;DHT22;21906;50.812;7.132;2023-07-20T09:30:15;22.40;53.90
4107;DHT22;21906;50.812;7.132;2023-07-20T09:32:48;22.60;53.40
4107;DHT22;21906;50.812;7.132;2023-07-20T09:35:20;22.70;51.60
4107;DHT22;21906;50.812;7.132;2023-07-20T09:38:00;22.90;52.10
4107;DHT22;21906;50.812;7.132;2023-07-20T09:40:26;22.80;50.50
4107;DHT22;21906;50.812;7.132;2023-07-20T09:42:53;22.90;50.70
4107;DHT22;21906;50.812;7.132;2023-07-20T09:45:29;22.90;49.20
4107;DHT22;21906;50.812;7.132;2023-07-20T09:48:04;22.80;49.50
4107;DHT22;21906;50.812;7.132;2023-07-20T09:50:30;22.60;49.90
4107;DHT22;21906;50.812;7.132;2023-07-20T09:52:56;22.40;49.30
4107;DHT22;21906;50.812;7.132;2023-07-20T09:55:23;22.40;50.40
4107;DHT22;21906;50.812;7.132;2023-07-20T09:57:50;22.30;51.40
4107;DHT22;21906;50.812;7.132;2023-07-20T10:00:18;22.10;51.80
4107;DHT22;21906;50.812;7.132;2023-07-20T10:02:45;22.10;53.10
4107;DHT22;21906;50.812;7.132;2023-07-20T10:05:15;22.00;52.10
4107;DHT22;21906;50.812;7.132;2023-07-20T10:07:48;22.00;52.30
4107;DHT22;21906;50.812;7.132;2023-07-20T10:10:15;22.10;54.60
4107;DHT22;21906;50.812;7.132;2023-07-20T10:12:43;22.30;52.50
4107;DHT22;21906;50.812;7.132;2023-07-20T10:15:18;22.60;50.30
4107;DHT22;21906;50.812;7.132;2023-07-20T10:20:42;22.80;50.80
4107;DHT22;21906;50.812;7.132;2023-07-20T10:23:10;23.00;51.20
4107;DHT22;21906;50.812;7.132;2023-07-20T10:25:37;23.20;51.60
4107;DHT22;21906;50.812;7.132;2023-07-20T10:28:07;23.50;50.40
4107;DHT22;21906;50.812;7.132;2023-07-20T10:30:37;23.60;48.20
4107;DHT22;21906;50.812;7.132;2023-07-20T10:33:04;23.70;45.10
4107;DHT22;21906;50.812;7.132;2023-07-20T10:35:30;23.70;45.90
4107;DHT22;21906;50.812;7.132;2023-07-20T10:38:05;23.90;45.50
4107;DHT22;21906;50.812;7.132;2023-07-20T10:40:38;24.10;44.40
4107;DHT22;21906;50.812;7.132;2023-07-20T10:43:06;24.00;44.80
4107;DHT22;21906;50.812;7.132;2023-07-20T10:45:36;24.10;44.30
4107;DHT22;21906;50.812;7.132;2023-07-20T10:48:16;24.20;45.10
4107;DHT22;21906;50.812;7.132;2023-07-20T10:50:42;24.30;44.30
4107;DHT22;21906;50.812;7.132;2023-07-20T10:53:18;24.30;45.20
4107;DHT22;21906;50.812;7.132;2023-07-20T10:55:44;24.30;45.90
4107;DHT22;21906;50.812;7.132;2023-07-20T10:58:13;24.30;47.80
4107;DHT22;21906;50.812;7.132;2023-07-20T11:01:03;23.90;47.10
4107;DHT22;21906;50.812;7.132;2023-07-20T11:03:31;23.60;47.80
4107;DHT22;21906;50.812;7.132;2023-07-20T11:05:57;23.30;48.50
4107;DHT22;21906;50.812;7.132;2023-07-20T11:08:41;23.10;49.30
4107;DHT22;21906;50.812;7.132;2023-07-20T11:11:26;23.10;50.10
4107;DHT22;21906;50.812;7.132;2023-07-20T11:14:03;23.30;50.60
4107;DHT22;21906;50.812;7.132;2023-07-20T11:16:58;23.50;48.00
4107;DHT22;21906;50.812;7.132;2023-07-20T11:19:35;23.70;48.60
4107;DHT22;21906;50.812;7.132;2023-07-20T11:22:04;23.80;48.00
4107;DHT22;21906;50.812;7.132;2023-07-20T11:24:33;23.60;47.50
4107;DHT22;21906;50.812;7.132;2023-07-20T11:27:00;23.50;47.30
4107;DHT22;21906;50.812;7.132;2023-07-20T11:29:27;23.40;47.90
4107;DHT22;21906;50.812;7.132;2023-07-20T11:31:53;23.20;47.70
4107;DHT22;21906;50.812;7.132;2023-07-20T11:34:20;23.30;47.20
4107;DHT22;21906;50.812;7.132;2023-07-20T11:36:51;23.30;46.70
4107;DHT22;21906;50.812;7.132;2023-07-20T11:39:18;23.10;46.60
4107;DHT22;21906;50.812;7.132;2023-07-20T11:41:48;23.10;47.40
4107;DHT22;21906;50.812;7.132;2023-07-20T11:44:18;23.30;46.30
4107;DHT22;21906;50.812;7.132;2023-07-20T11:46:44;23.40;47.40
4107;DHT22;21906;50.812;7.132;2023-07-20T11:49:11;23.50;45.70
4107;DHT22;21906;50.812;7.132;2023-07-20T11:51:38;23.50;45.80
4107;DHT22;21906;50.812;7.132;2023-07-20T11:54:07;23.50;45.90
4107;DHT22;21906;50.812;7.132;2023-07-20T11:56:33;23.50;45.00
4107;DHT22;21906;50.812;7.132;2023-07-20T11:58:59;23.60;44.70
4107;DHT22;21906;50.812;7.132;2023-07-20T12:01:27;23.50;44.30
4107;DHT22;21906;50.812;7.132;2023-07-20T12:04:00;23.50;42.90
4107;DHT22;21906;50.812;7.132;2023-07-20T12:06:28;23.50;42.20
4107;DHT22;21906;50.812;7.132;2023-07-20T12:08:58;23.60;44.20
4107;DHT22;21906;50.812;7.132;2023-07-20T12:11:50;23.50;45.10
4107;DHT22;21906;50.812;7.132;2023-07-20T12:14:16;23.20;45.60
4107;DHT22;21906;50.812;7.132;2023-07-20T12:16:42;23.30;45.80
4107;DHT22;21906;50.812;7.132;2023-07-20T12:19:12;23.20;46.90
4107;DHT22;21906;50.812;7.132;2023-07-20T12:21:40;23.30;46.90
4107;DHT22;21906;50.812;7.132;2023-07-20T12:24:08;23.40;44.90
4107;DHT22;21906;50.812;7.132;2023-07-20T12:26:37;23.40;44.30
4107;DHT22;21906;50.812;7.132;2023-07-20T12:29:04;23.50;44.10
4107;DHT22;21906;50.812;7.132;2023-07-20T12:31:30;23.70;44.30
4107;DHT22;21906;50.812;7.132;2023-07-20T12:33:56;23.80;44.00
4107;DHT22;21906;50.812;7.132;2023-07-20T12:36:23;23.70;44.40
4107;DHT22;21906;50.812;7.132;2023-07-20T12:38:49;23.70;44.50
4107;DHT22;21906;50.812;7.132;2023-07-20T12:41:15;23.70;44.90
4107;DHT22;21906;50.812;7.132;2023-07-20T12:43:42;23.80;44.50
4107;DHT22;21906;50.812;7.132;2023-07-20T12:46:08;23.90;45.50
4107;DHT22;21906;50.812;7.132;2023-07-20T12:48:35;24.30;44.30
4107;DHT22;21906;50.812;7.132;2023-07-20T12:51:03;24.50;43.60
4107;DHT22;21906;50.812;7.132;2023-07-20T12:53:30;24.60;42.50
4107;DHT22;21906;50.812;7.132;2023-07-20T12:55:56;24.80;43.00
4107;DHT22;21906;50.812;7.132;2023-07-20T12:58:22;24.90;42.70
4107;DHT22;21906;50.812;7.132;2023-07-20T13:00:49;25.10;41.20
4107;DHT22;21906;50.812;7.132;2023-07-20T13:03:15;25.40;42.60
4107;DHT22;21906;50.812;7.132;2023-07-20T13:05:41;25.70;40.80
4107;DHT22;21906;50.812;7.132;2023-07-20T13:08:07;25.80;42.00
4107;DHT22;21906;50.812;7.132;2023-07-20T13:10:33;25.90;40.50
4107;DHT22;21906;50.812;7.132;2023-07-20T13:12:59;26.30;41.60
4107;DHT22;21906;50.812;7.132;2023-07-20T13:15:30;26.40;37.20
4107;DHT22;21906;50.812;7.132;2023-07-20T13:17:57;26.20;36.40
4107;DHT22;21906;50.812;7.132;2023-07-20T13:20:23;26.20;37.80
4107;DHT22;21906;50.812;7.132;2023-07-20T13:22:48;26.30;36.60
4107;DHT22;21906;50.812;7.132;2023-07-20T13:25:14;26.40;38.40
4107;DHT22;21906;50.812;7.132;2023-07-20T13:27:40;26.30;39.40
4107;DHT22;21906;50.812;7.132;2023-07-20T13:30:06;26.10;39.70
4107;DHT22;21906;50.812;7.132;2023-07-20T13:32:35;26.10;40.10
4107;DHT22;21906;50.812;7.132;2023-07-20T13:35:01;25.90;40.10
4107;DHT22;21906;50.812;7.132;2023-07-20T13:37:27;26.00;39.60
4107;DHT22;21906;50.812;7.132;2023-07-20T13:39:54;26.20;39.10
4107;DHT22;21906;50.812;7.132;2023-07-20T13:42:19;26.20;39.40
4107;DHT22;21906;50.812;7.132;2023-07-20T13:44:47;26.20;39.80
4107;DHT22;21906;50.812;7.132;2023-07-20T13:47:13;25.90;39.80
4107;DHT22;21906;50.812;7.132;2023-07-20T13:49:39;25.60;40.70
4107;DHT22;21906;50.812;7.132;2023-07-20T13:52:05;25.60;41.70
4107;DHT22;21906;50.812;7.132;2023-07-20T13:54:31;25.80;40.20
4107;DHT22;21906;50.812;7.132;2023-07-20T13:56:57;25.70;40.00
4107;DHT22;21906;50.812;7.132;2023-07-20T13:59:23;25.70;40.60
4107;DHT22;21906;50.812;7.132;2023-07-20T14:01:49;26.00;40.60
4107;DHT22;21906;50.812;7.132;2023-07-20T14:04:15;26.40;40.00
4107;DHT22;21906;50.812;7.132;2023-07-20T14:06:40;26.60;38.80
4107;DHT22;21906;50.812;7.132;2023-07-20T14:09:06;26.70;38.70
4107;DHT22;21906;50.812;7.132;2023-07-20T14:11:32;26.80;38.00
4107;DHT22;21906;50.812;7.132;2023-07-20T14:13:58;26.80;38.80
4107;DHT22;21906;50.812;7.132;2023-07-20T14:16:25;26.60;38.50
4107;DHT22;21906;50.812;7.132;2023-07-20T14:18:51;26.50;38.00
4107;DHT22;21906;50.812;7.132;2023-07-20T14:21:18;26.70;38.00
4107;DHT22;21906;50.812;7.132;2023-07-20T14:23:46;26.80;38.00
4107;DHT22;21906;50.812;7.132;2023-07-20T14:26:12;26.90;38.00
4107;DHT22;21906;50.812;7.132;2023-07-20T14:28:38;27.10;37.70
4107;DHT22;21906;50.812;7.132;2023-07-20T14:31:04;27.30;36.00
4107;DHT22;21906;50.812;7.132;2023-07-20T14:33:30;27.30;36.70
4107;DHT22;21906;50.812;7.132;2023-07-20T14:35:56;27.50;35.50
4107;DHT22;21906;50.812;7.132;2023-07-20T14:38:22;27.70;37.00
4107;DHT22;21906;50.812;7.132;2023-07-20T14:40:47;28.00;34.40
4107;DHT22;21906;50.812;7.132;2023-07-20T14:43:13;27.90;34.40
4107;DHT22;21906;50.812;7.132;2023-07-20T14:45:40;27.90;34.60
4107;DHT22;21906;50.812;7.132;2023-07-20T14:48:06;27.80;34.60
4107;DHT22;21906;50.812;7.132;2023-07-20T14:50:33;27.50;34.50
4107;DHT22;21906;50.812;7.132;2023-07-20T14:52:58;27.90;34.30
4107;DHT22;21906;50.812;7.132;2023-07-20T14:55:25;28.10;34.30
4107;DHT22;21906;50.812;7.132;2023-07-20T14:57:51;28.40;34.10
4107;DHT22;21906;50.812;7.132;2023-07-20T15:00:17;28.60;33.40
4107;DHT22;21906;50.812;7.132;2023-07-20T15:02:42;29.10;34.00
4107;DHT22;21906;50.812;7.132;2023-07-20T15:05:10;28.70;32.40
4107;DHT22;21906;50.812;7.132;2023-07-20T15:07:36;29.00;32.70
4107;DHT22;21906;50.812;7.132;2023-07-20T15:10:03;29.50;31.90
4107;DHT22;21906;50.812;7.132;2023-07-20T15:12:32;29.80;32.10
4107;DHT22;21906;50.812;7.132;2023-07-20T15:15:06;30.30;31.80
4107;DHT22;21906;50.812;7.132;2023-07-20T15:17:33;30.90;31.60
4107;DHT22;21906;50.812;7.132;2023-07-20T15:19:59;30.90;30.60
4107;DHT22;21906;50.812;7.132;2023-07-20T15:22:25;30.90;30.30
4107;DHT22;21906;50.812;7.132;2023-07-20T15:24:51;31.20;30.00
4107;DHT22;21906;50.812;7.132;2023-07-20T15:27:16;31.20;29.30
4107;DHT22;21906;50.812;7.132;2023-07-20T15:29:42;31.40;28.80
4107;DHT22;21906;50.812;7.132;2023-07-20T15:32:10;30.80;28.00
4107;DHT22;21906;50.812;7.132;2023-07-20T15:34:35;30.20;28.40
4107;DHT22;21906;50.812;7.132;2023-07-20T15:37:01;30.40;28.10
4107;DHT22;21906;50.812;7.132;2023-07-20T15:39:28;30.20;29.30
4107;DHT22;21906;50.812;7.132;2023-07-20T15:41:54;29.60;29.40
4107;DHT22;21906;50.812;7.132;2023-07-20T15:44:20;29.20;29.90
4107;DHT22;21906;50.812;7.132;2023-07-20T15:46:47;29.10;30.60
4107;DHT22;21906;50.812;7.132;2023-07-20T15:49:14;29.30;30.10
4107;DHT22;21906;50.812;7.132;2023-07-20T15:51:39;30.20;30.80
4107;DHT22;21906;50.812;7.132;2023-07-20T15:54:11;31.90;29.40
4107;DHT22;21906;50.812;7.132;2023-07-20T15:56:38;32.10;27.10